Time;durP1;ratioP1;P1;durP2;ratioP2;P2;SDS_P1;SDS_P2;PMS_P1;PMS_P2;Temp;Humidity;BMP_temperature;BMP_pressure;BME280_temperature;BME280_humidity;BME280_pressure;Samples;Min_cycle;Max_cycle;Signal;HPM_P1;HPM_P2
2022/08/02 00:00:22;;;;;;;8.30;5.32;;;12.40;99.90;;;;;;4933324;29;20048;-71
2022/08/02 00:02:48;;;;;;;9.95;6.00;;;12.40;99.90;;;;;;4933295;29;20047;-71
2022/08/02 00:05:14;;;;;;;10.15;6.55;;;12.40;99.90;;;;;;4934345;29;20050;-71
2022/08/02 00:07:40;;;;;;;10.43;6.95;;;12.40;99.90;;;;;;4933098;29;20449;-71
2022/08/02 00:10:08;;;;;;;10.05;6.10;;;12.30;99.90;;;;;;4935053;29;20051;-71
2022/08/02 00:12:34;;;;;;;12.57;6.10;;;12.30;99.90;;;;;;4932765;29;20123;-71
2022/08/02 00:14:59;;;;;;;17.23;6.63;;;12.30;99.90;;;;;;4920784;29;20126;-71
2022/08/02 00:17:25;;;;;;;5.53;4.95;;;12.30;99.90;;;;;;4938601;29;20508;-71
2022/08/02 00:19:51;;;;;;;9.00;5.50;;;12.30;99.90;;;;;;4921360;29;20043;-71
2022/08/02 00:22:16;;;;;;;14.85;5.97;;;12.20;99.90;;;;;;4923609;29;20393;-71
2022/08/02 00:24:42;;;;;;;6.85;5.88;;;12.20;99.90;;;;;;4937790;29;20486;-71
2022/08/02 00:27:08;;;;;;;6.60;5.50;;;12.20;99.90;;;;;;4927213;29;20074;-71
2022/08/02 00:29:34;;;;;;;8.35;5.57;;;12.10;99.90;;;;;;4938636;29;20055;-71
2022/08/02 00:32:01;;;;;;;6.97;5.00;;;12.00;99.90;;;;;;4937067;29;20052;-71
2022/08/02 00:34:27;;;;;;;8.57;5.03;;;11.90;99.90;;;;;;4922737;29;20043;-71
2022/08/02 00:36:52;;;;;;;5.88;5.15;;;11.90;99.90;;;;;;4921833;29;20044;-71
2022/08/02 00:39:18;;;;;;;8.55;7.60;;;12.00;99.90;;;;;;4932219;29;20051;-71
2022/08/02 00:41:50;;;;;;;6.45;5.30;;;12.00;99.90;;;;;;4904231;29;20044;-71
2022/08/02 00:44:17;;;;;;;4.68;3.70;;;11.90;99.90;;;;;;4915436;29;20417;-71
2022/08/02 00:46:44;;;;;;;4.57;4.17;;;11.90;99.90;;;;;;4915925;29;20166;-71
2022/08/02 00:49:11;;;;;;;8.50;4.65;;;11.90;99.90;;;;;;4934091;29;20095;-71
2022/08/02 00:51:37;;;;;;;6.75;3.92;;;11.80;99.90;;;;;;4919585;29;20043;-71
2022/08/02 00:54:04;;;;;;;5.38;4.72;;;11.80;99.90;;;;;;4935339;29;20817;-71
2022/08/02 00:56:29;;;;;;;8.55;5.40;;;11.70;99.90;;;;;;4932467;29;20483;-71
2022/08/02 00:58:55;;;;;;;7.80;4.85;;;11.70;99.90;;;;;;4925958;29;20131;-71
2022/08/02 01:01:37;;;;;;;6.32;5.22;;;11.60;99.90;;;;;;4907776;29;20052;-71
2022/08/02 01:04:10;;;;;;;7.35;4.97;;;11.60;99.90;;;;;;4933408;29;20051;-71
2022/08/02 01:06:41;;;;;;;5.68;4.78;;;11.60;99.90;;;;;;4915935;29;20052;-71
2022/08/02 01:09:07;;;;;;;9.30;5.78;;;11.50;99.90;;;;;;4932124;29;20504;-71
2022/08/02 01:11:34;;;;;;;7.40;5.25;;;11.50;99.90;;;;;;4915100;29;20050;-71
2022/08/02 01:14:10;;;;;;;11.10;5.47;;;11.40;99.90;;;;;;4909410;29;20610;-71
2022/08/02 01:16:41;;;;;;;9.63;5.05;;;11.40;99.90;;;;;;4915908;29;20314;-71
2022/08/02 01:19:36;;;;;;;4.68;3.83;;;11.30;99.90;;;;;;4931057;29;20056;-71
2022/08/02 01:22:17;;;;;;;5.15;4.53;;;11.30;99.90;;;;;;4930915;29;20043;-71
2022/08/02 01:25:12;;;;;;;6.32;4.43;;;11.20;99.90;;;;;;4931983;29;20865;-71
2022/08/02 01:28:19;;;;;;;3.63;3.30;;;11.20;99.90;;;;;;4921957;29;20059;-71
2022/08/02 01:30:49;;;;;;;5.72;3.60;;;11.10;99.90;;;;;;4897321;29;20070;-71
2022/08/02 01:33:18;;;;;;;9.57;4.20;;;11.00;99.90;;;;;;4934177;29;20052;-71
2022/08/02 01:35:52;;;;;;;6.43;4.68;;;11.00;99.90;;;;;;4930150;29;20051;-71
2022/08/02 01:38:39;;;;;;;5.90;4.30;;;11.00;99.90;;;;;;4913882;29;20144;-71
2022/08/02 01:41:08;;;;;;;8.43;4.28;;;11.00;99.90;;;;;;4931084;29;20071;-71
2022/08/02 01:43:36;;;;;;;4.65;4.25;;;10.90;99.90;;;;;;4930535;29;20128;-71
2022/08/02 01:46:02;;;;;;;;;;;10.90;99.90;;;;;;4931615;29;20055;-71
2022/08/02 01:48:30;;;;;;;12.55;5.25;;;10.80;99.90;;;;;;4932162;29;19960;-71
2022/08/02 01:50:57;;;;;;;8.55;5.40;;;10.80;99.90;;;;;;4913283;29;20548;-71
2022/08/02 01:53:26;;;;;;;7.30;6.47;;;10.80;99.90;;;;;;4936899;29;20070;-71
2022/08/02 01:55:54;;;;;;;7.85;5.63;;;10.80;99.90;;;;;;4930146;29;20070;-70
2022/08/02 01:58:23;;;;;;;6.63;5.68;;;10.80;99.90;;;;;;4940318;29;20039;-70
2022/08/02 02:00:50;;;;;;;7.63;5.40;;;10.80;99.90;;;;;;4931645;29;20051;-70
2022/08/02 02:03:20;;;;;;;8.70;5.90;;;10.80;99.90;;;;;;4935692;29;20078;-70
2022/08/02 02:05:56;;;;;;;14.32;6.68;;;10.80;99.90;;;;;;4938215;29;20397;-70
2022/08/02 02:08:31;;;;;;;10.73;6.55;;;10.80;99.90;;;;;;4935722;29;20079;-71
2022/08/02 02:10:57;;;;;;;11.00;6.97;;;10.80;99.90;;;;;;4920091;29;20047;-70
2022/08/02 02:13:26;;;;;;;10.10;6.57;;;10.80;99.90;;;;;;4931276;29;20039;-70
2022/08/02 02:15:54;;;;;;;12.23;7.95;;;10.70;99.90;;;;;;4930172;29;20055;-70
2022/08/02 02:18:24;;;;;;;11.73;7.47;;;10.70;99.90;;;;;;4930932;29;20051;-70
2022/08/02 02:20:50;;;;;;;10.27;8.07;;;10.70;99.90;;;;;;4930192;29;20051;-70
2022/08/02 02:23:17;;;;;;;12.18;8.25;;;10.70;99.90;;;;;;4913259;29;20051;-70
2022/08/02 02:25:43;;;;;;;12.20;8.07;;;10.70;99.90;;;;;;4918132;29;20055;-70
2022/08/02 02:28:15;;;;;;;13.18;8.18;;;10.70;99.90;;;;;;4929633;29;20059;-70
2022/08/02 02:30:47;;;;;;;19.45;9.55;;;10.80;99.90;;;;;;4927626;29;20482;-70
2022/08/02 02:33:15;;;;;;;19.35;8.90;;;10.80;99.90;;;;;;4942179;28;20047;-71
2022/08/02 02:35:43;;;;;;;11.13;8.70;;;10.80;99.90;;;;;;4915233;29;20053;-70
2022/08/02 02:38:15;;;;;;;12.32;8.88;;;10.80;99.90;;;;;;4930528;29;20058;-71
2022/08/02 02:40:43;;;;;;;11.45;9.05;;;10.80;99.90;;;;;;4928826;29;20047;-71
2022/08/02 02:43:11;;;;;;;14.30;10.20;;;10.80;99.90;;;;;;4930271;29;20484;-71
2022/08/02 02:45:39;;;;;;;11.68;8.25;;;10.80;99.90;;;;;;4936647;29;20043;-70
2022/08/02 02:48:06;;;;;;;16.08;10.85;;;10.80;99.90;;;;;;4914200;29;20051;-70
2022/08/02 02:50:32;;;;;;;26.02;12.13;;;10.70;99.90;;;;;;4930387;29;20044;-70
2022/08/02 02:53:00;;;;;;;20.15;11.35;;;10.80;99.90;;;;;;4911131;29;20079;-69
2022/08/02 02:55:27;;;;;;;23.88;11.10;;;10.90;99.90;;;;;;4929576;29;20052;-69
2022/08/02 02:57:54;;;;;;;20.35;12.70;;;10.90;99.90;;;;;;4921510;29;20127;-69
2022/08/02 03:01:26;;;;;;;18.05;11.60;;;11.00;99.90;;;;;;4930317;29;20062;-69
2022/08/02 03:03:07;;;;;;;22.52;12.95;;;11.00;99.90;;;;;;4929789;29;20052;-69
2022/08/02 03:05:33;;;;;;;22.95;13.85;;;11.10;99.90;;;;;;4930568;29;20044;-69
2022/08/02 03:07:58;;;;;;;25.90;14.60;;;11.10;99.90;;;;;;4929590;29;20098;-69
2022/08/02 03:10:25;;;;;;;22.95;13.40;;;11.10;99.90;;;;;;4929858;29;20059;-69
2022/08/02 03:12:51;;;;;;;23.90;13.60;;;11.20;99.90;;;;;;4931661;29;20134;-69
2022/08/02 03:15:20;;;;;;;24.77;13.38;;;11.20;99.90;;;;;;4936777;29;20297;-68
2022/08/02 03:17:46;;;;;;;22.80;14.20;;;11.20;99.90;;;;;;4913341;29;20059;-69
2022/08/02 03:20:21;;;;;;;19.90;12.48;;;11.10;99.90;;;;;;4935304;29;20416;-69
2022/08/02 03:22:48;;;;;;;25.27;13.60;;;11.10;99.90;;;;;;4922644;29;20055;-69
2022/08/02 03:25:15;;;;;;;25.60;13.80;;;11.10;99.90;;;;;;4929084;29;20050;-70
2022/08/02 03:27:41;;;;;;;27.25;14.18;;;11.10;99.90;;;;;;4929744;29;20051;-70
2022/08/02 03:30:09;;;;;;;26.73;13.18;;;11.10;99.90;;;;;;4913042;29;20059;-70
2022/08/02 03:32:36;;;;;;;22.73;14.82;;;11.10;99.90;;;;;;4912465;29;20519;-70
2022/08/02 03:35:04;;;;;;;23.92;14.65;;;11.10;99.90;;;;;;4928841;29;20111;-70
2022/08/02 03:37:31;;;;;;;25.42;14.60;;;11.20;99.90;;;;;;4922589;29;20095;-70
2022/08/02 03:39:57;;;;;;;19.45;13.80;;;11.30;99.90;;;;;;4914873;29;20409;-71
2022/08/02 03:42:25;;;;;;;28.83;14.25;;;11.30;99.90;;;;;;4924990;29;20047;-70
2022/08/02 03:44:52;;;;;;;18.52;13.82;;;11.20;99.90;;;;;;4923881;29;20126;-70
2022/08/02 03:47:18;;;;;;;22.38;13.82;;;11.20;99.90;;;;;;4916474;29;20983;-70
2022/08/02 03:49:45;;;;;;;24.73;13.38;;;11.30;99.90;;;;;;4915797;29;20039;-71
2022/08/02 03:52:11;;;;;;;26.08;13.70;;;11.20;99.90;;;;;;4931131;29;20179;-70
2022/08/02 03:54:36;;;;;;;20.65;14.98;;;11.20;99.90;;;;;;4932519;29;20050;-70
2022/08/02 03:57:06;;;;;;;18.02;12.82;;;11.30;99.90;;;;;;4933166;29;20417;-71
2022/08/02 03:59:40;;;;;;;23.48;13.77;;;11.30;99.90;;;;;;4915932;29;20064;-70
2022/08/02 04:02:06;;;;;;;24.40;14.13;;;11.30;99.90;;;;;;4927827;29;20059;-70
2022/08/02 04:04:33;;;;;;;29.63;12.52;;;11.30;99.90;;;;;;4932450;29;20138;-70
2022/08/02 04:06:59;;;;;;;21.67;13.07;;;11.30;99.90;;;;;;4932434;29;20144;-71
2022/08/02 04:09:25;;;;;;;29.58;14.15;;;11.30;99.90;;;;;;4915496;29;20047;-70
2022/08/02 04:11:51;;;;;;;18.75;13.98;;;11.40;99.90;;;;;;4942098;29;20043;-71
2022/08/02 04:14:17;;;;;;;19.27;12.98;;;11.40;99.90;;;;;;4932723;29;20062;-71
2022/08/02 04:16:51;;;;;;;26.50;13.02;;;11.50;99.90;;;;;;4915506;29;20134;-70
2022/08/02 04:19:39;;;;;;;18.52;13.27;;;11.60;99.90;;;;;;4928994;29;20103;-71
2022/08/02 04:22:09;;;;;;;13.43;12.10;;;11.80;99.90;;;;;;4905823;29;20055;-70
2022/08/02 04:24:43;;;;;;;14.38;11.15;;;11.90;99.90;;;;;;4931389;29;20179;-70
2022/08/02 04:27:09;;;;;;;24.98;12.85;;;12.00;99.90;;;;;;4932683;29;20067;-70
2022/08/02 04:29:36;;;;;;;15.57;12.13;;;12.10;99.90;;;;;;4915507;29;20086;-71
2022/08/02 04:32:04;;;;;;;17.50;12.35;;;12.20;99.90;;;;;;4932326;29;20052;-71
2022/08/02 04:34:30;;;;;;;19.38;12.55;;;12.30;99.90;;;;;;4911053;29;20055;-71
2022/08/02 04:36:59;;;;;;;20.00;12.18;;;12.40;99.90;;;;;;4932510;29;20512;-71
2022/08/02 04:39:28;;;;;;;12.60;11.15;;;12.40;99.90;;;;;;4928003;29;20036;-71
2022/08/02 04:41:54;;;;;;;16.80;11.75;;;12.30;99.90;;;;;;4936468;29;20047;-71
2022/08/02 04:44:19;;;;;;;28.90;11.52;;;12.30;99.90;;;;;;4909606;29;20398;-69
2022/08/02 04:46:45;;;;;;;18.67;11.68;;;12.30;99.90;;;;;;4914481;29;20110;-69
2022/08/02 04:49:12;;;;;;;13.18;10.68;;;12.30;99.90;;;;;;4929343;29;20047;-68
2022/08/02 04:51:39;;;;;;;30.48;13.80;;;12.40;99.90;;;;;;4917518;29;20047;-69
2022/08/02 04:54:06;;;;;;;17.30;11.55;;;12.40;99.90;;;;;;4913560;29;20095;-69
2022/08/02 04:56:32;;;;;;;31.83;13.25;;;12.40;99.90;;;;;;4930558;29;20055;-69
2022/08/02 04:58:57;;;;;;;23.80;12.30;;;12.40;99.90;;;;;;4917177;29;20479;-69
2022/08/02 05:01:23;;;;;;;16.40;11.60;;;12.40;99.90;;;;;;4928778;29;20503;-69
2022/08/02 05:03:49;;;;;;;15.80;11.77;;;12.40;99.90;;;;;;4914217;29;20126;-69
2022/08/02 05:06:15;;;;;;;20.35;12.95;;;12.40;99.90;;;;;;4931418;29;20587;-70
2022/08/02 05:08:41;;;;;;;26.52;12.65;;;12.50;99.90;;;;;;4906000;29;20056;-70
2022/08/02 05:11:06;;;;;;;19.88;11.68;;;12.50;99.90;;;;;;4938882;29;20159;-70
2022/08/02 05:13:32;;;;;;;21.52;12.48;;;12.50;99.90;;;;;;4913767;29;20124;-70
2022/08/02 05:16:00;;;;;;;17.40;11.27;;;12.60;99.90;;;;;;4927835;29;20047;-69
2022/08/02 05:18:27;;;;;;;18.33;13.55;;;12.60;99.90;;;;;;4911803;29;20123;-69
2022/08/02 05:20:53;;;;;;;18.98;11.88;;;12.70;99.90;;;;;;4929127;29;20115;-69
2022/08/02 05:23:19;;;;;;;15.63;11.63;;;12.70;99.90;;;;;;4916098;29;20135;-69
2022/08/02 05:25:44;;;;;;;24.33;12.90;;;12.80;99.90;;;;;;4934263;29;20127;-70
2022/08/02 05:28:10;;;;;;;21.85;12.40;;;12.80;99.90;;;;;;4913633;29;20058;-69
2022/08/02 05:30:36;;;;;;;17.45;12.27;;;12.90;99.90;;;;;;4931368;29;20047;-69
2022/08/02 05:33:01;;;;;;;23.52;13.15;;;12.90;99.90;;;;;;4928626;29;20086;-69
2022/08/02 05:35:27;;;;;;;19.55;12.35;;;13.00;99.90;;;;;;4933515;29;20495;-68
2022/08/02 05:37:52;;;;;;;20.05;12.80;;;13.00;99.90;;;;;;4931546;29;20572;-69
2022/08/02 05:40:18;;;;;;;21.05;12.88;;;13.10;99.90;;;;;;4925991;29;20059;-69
2022/08/02 05:42:45;;;;;;;24.20;14.18;;;13.20;99.90;;;;;;4905810;29;20050;-70
2022/08/02 05:45:11;;;;;;;15.95;12.98;;;13.20;99.90;;;;;;4929057;29;20051;-70
2022/08/02 05:47:37;;;;;;;28.90;14.90;;;13.30;99.90;;;;;;4930924;29;20039;-70
2022/08/02 05:50:05;;;;;;;25.20;14.60;;;13.40;99.90;;;;;;4931172;29;20060;-70
2022/08/02 05:52:50;;;;;;;26.35;15.35;;;13.60;99.90;;;;;;4931514;29;20103;-70
2022/08/02 05:55:19;;;;;;;18.65;12.98;;;13.60;99.90;;;;;;4919002;29;20047;-69
2022/08/02 05:57:55;;;;;;;16.60;12.70;;;13.60;99.90;;;;;;4928995;29;20161;-69
2022/08/02 06:00:22;;;;;;;20.27;13.25;;;13.70;99.90;;;;;;4939364;29;20059;-70
2022/08/02 06:03:25;;;;;;;17.92;12.50;;;13.80;99.90;;;;;;4913474;29;20054;-69
2022/08/02 06:06:15;;;;;;;18.98;11.30;;;13.90;99.90;;;;;;4927737;29;20489;-70
2022/08/02 06:08:46;;;;;;;22.45;11.23;;;14.00;99.90;;;;;;4930766;29;20051;-69
2022/08/02 06:11:20;;;;;;;17.35;10.27;;;14.10;99.90;;;;;;4928695;29;20039;-70
2022/08/02 06:13:47;;;;;;;11.07;9.15;;;14.20;99.90;;;;;;4930430;29;20055;-70
2022/08/02 06:16:13;;;;;;;13.93;9.02;;;14.30;99.90;;;;;;4913093;29;20841;-70
2022/08/02 06:18:43;;;;;;;12.80;8.60;;;14.30;99.90;;;;;;4929675;29;20114;-69
2022/08/02 06:21:09;;;;;;;14.57;8.68;;;14.50;99.90;;;;;;4921124;29;20056;-69
2022/08/02 06:23:40;;;;;;;16.40;8.50;;;14.60;99.90;;;;;;4928625;29;20039;-69
2022/08/02 06:26:07;;;;;;;14.18;8.02;;;14.80;99.90;;;;;;4919255;29;20047;-69
2022/08/02 06:28:36;;;;;;;12.63;7.87;;;14.90;99.90;;;;;;4926752;29;20075;-69
2022/08/02 06:31:05;;;;;;;17.48;7.97;;;15.00;99.90;;;;;;4930729;29;20082;-69
2022/08/02 06:33:31;;;;;;;12.55;8.52;;;15.20;99.90;;;;;;4912119;29;20055;-69
2022/08/02 06:36:03;;;;;;;17.52;7.97;;;15.30;99.90;;;;;;4930231;29;20058;-69
2022/08/02 06:38:38;;;;;;;11.35;6.93;;;15.40;99.90;;;;;;4914042;29;20059;-69
2022/08/02 06:41:07;;;;;;;14.77;7.50;;;15.50;99.90;;;;;;4929643;29;20051;-70
2022/08/02 06:43:52;;;;;;;9.50;6.82;;;15.60;99.90;;;;;;4930194;29;20113;-69
2022/08/02 06:46:18;;;;;;;10.43;7.28;;;15.70;99.90;;;;;;4925107;29;20055;-68
2022/08/02 06:48:44;;;;;;;15.98;7.13;;;15.90;99.90;;;;;;4929889;29;20508;-69
2022/08/02 06:51:11;;;;;;;15.55;6.07;;;16.10;99.90;;;;;;4925178;29;20102;-69
2022/08/02 06:53:36;;;;;;;6.38;5.53;;;16.30;99.90;;;;;;4929569;29;20055;-69
2022/08/02 06:56:04;;;;;;;7.53;5.35;;;16.50;99.90;;;;;;4903900;29;20447;-71
2022/08/02 06:58:30;;;;;;;16.10;6.45;;;16.70;99.90;;;;;;4928273;29;20043;-73
2022/08/02 07:00:55;;;;;;;11.75;6.68;;;17.00;99.90;;;;;;4910330;29;20036;-73
2022/08/02 07:03:21;;;;;;;7.75;5.75;;;17.20;99.90;;;;;;4928319;29;20044;-80
2022/08/02 07:05:47;;;;;;;14.60;5.75;;;17.50;99.90;;;;;;4915037;29;20062;-79
2022/08/02 07:08:17;;;;;;;10.77;5.43;;;17.70;99.90;;;;;;4919566;29;20563;-79
2022/08/02 07:10:47;;;;;;;11.25;5.57;;;18.00;99.90;;;;;;4917077;29;20052;-80
2022/08/02 07:13:12;;;;;;;7.97;5.68;;;18.30;99.90;;;;;;4917026;29;20052;-79
2022/08/02 07:15:39;;;;;;;8.52;5.15;;;18.50;99.90;;;;;;4914930;29;20075;-79
2022/08/02 07:18:05;;;;;;;11.23;5.28;;;18.80;99.90;;;;;;4915049;29;20048;-79
2022/08/02 07:20:31;;;;;;;9.10;4.60;;;19.10;99.90;;;;;;4915801;29;20059;-79
2022/08/02 07:22:57;;;;;;;16.85;5.25;;;19.30;99.90;;;;;;4920050;29;20052;-79
2022/08/02 07:25:23;;;;;;;8.77;5.13;;;19.60;99.90;;;;;;4922173;29;20071;-78
2022/08/02 07:27:48;;;;;;;9.63;3.90;;;19.80;99.90;;;;;;4915864;29;20060;-79
2022/08/02 07:30:14;;;;;;;13.48;4.20;;;20.10;99.90;;;;;;4916575;29;20055;-79
2022/08/02 07:32:40;;;;;;;8.32;4.53;;;20.10;99.90;;;;;;4919339;29;20099;-78
2022/08/02 07:35:06;;;;;;;8.70;3.90;;;20.20;99.90;;;;;;4902562;29;20139;-79
2022/08/02 07:37:33;;;;;;;4.88;3.55;;;20.30;99.90;;;;;;4912169;29;20044;-79
2022/08/02 07:39:59;;;;;;;6.07;3.80;;;20.30;99.90;;;;;;4916019;29;20575;-79
2022/08/02 07:42:27;;;;;;;7.75;4.00;;;20.40;99.90;;;;;;4920166;29;20091;-79
2022/08/02 07:44:53;;;;;;;4.90;3.90;;;20.40;99.90;;;;;;4913350;29;20052;-79
2022/08/02 07:47:18;;;;;;;4.15;3.85;;;20.60;99.90;;;;;;4916411;29;20095;-79
2022/08/02 07:49:45;;;;;;;12.05;4.20;;;20.80;99.90;;;;;;4917037;29;20052;-79
2022/08/02 07:52:11;;;;;;;7.00;3.80;;;21.10;99.90;;;;;;4917906;29;20071;-79
2022/08/02 07:54:37;;;;;;;8.05;3.70;;;21.30;99.90;;;;;;4911450;29;20788;-79
2022/08/02 07:57:03;;;;;;;5.95;3.25;;;21.50;99.90;;;;;;4913316;29;20048;-80
2022/08/02 07:59:29;;;;;;;4.47;2.85;;;21.70;99.90;;;;;;4917603;29;20067;-79
2022/08/02 08:01:55;;;;;;;6.22;3.08;;;21.90;99.90;;;;;;4911794;29;20044;-71
2022/08/02 08:04:20;;;;;;;6.63;3.28;;;21.90;99.90;;;;;;4913063;29;20067;-71
2022/08/02 08:06:50;;;;;;;9.45;2.90;;;22.10;99.90;;;;;;4914059;29;20728;-71
2022/08/02 08:09:16;;;;;;;8.73;4.05;;;22.30;99.90;;;;;;4896161;29;20102;-71
2022/08/02 08:11:42;;;;;;;6.05;3.03;;;22.40;99.90;;;;;;4912058;29;20493;-71
2022/08/02 08:14:07;;;;;;;5.43;2.70;;;22.50;99.90;;;;;;4913632;29;20131;-71
2022/08/02 08:16:33;;;;;;;10.32;2.80;;;22.60;99.90;;;;;;4910966;29;20075;-71
2022/08/02 08:18:59;;;;;;;3.05;2.50;;;22.70;99.90;;;;;;4913699;29;20541;-72
2022/08/02 08:21:24;;;;;;;5.18;2.40;;;22.80;99.90;;;;;;4913450;29;20056;-71
2022/08/02 08:23:51;;;;;;;5.97;2.95;;;23.00;99.90;;;;;;4909730;29;20052;-70
2022/08/02 08:26:17;;;;;;;4.28;2.67;;;23.00;96.00;;;;;;4914055;29;20522;-70
2022/08/02 08:28:42;;;;;;;4.15;2.35;;;23.10;91.10;;;;;;4912083;29;20179;-71
2022/08/02 08:31:08;;;;;;;3.03;2.33;;;23.20;89.10;;;;;;4909698;29;20052;-70
2022/08/02 08:33:33;;;;;;;6.68;2.45;;;23.30;84.40;;;;;;4912562;29;20048;-70
2022/08/02 08:35:59;;;;;;;7.65;2.70;;;23.40;80.50;;;;;;4912047;29;20045;-70
2022/08/02 08:38:25;;;;;;;4.18;2.85;;;23.60;81.00;;;;;;4912852;29;20074;-70
2022/08/02 08:40:51;;;;;;;9.25;3.10;;;23.60;78.50;;;;;;4913188;29;20052;-70
2022/08/02 08:43:17;;;;;;;6.13;3.17;;;23.70;74.90;;;;;;4912937;29;20553;-69
2022/08/02 08:45:47;;;;;;;6.88;2.70;;;23.80;79.30;;;;;;4914690;29;20698;-70
2022/08/02 08:48:15;;;;;;;4.55;3.40;;;24.10;83.30;;;;;;4912028;29;20051;-70
2022/08/02 08:50:54;;;;;;;2.83;2.30;;;24.00;78.90;;;;;;4909475;29;20047;-70
2022/08/02 08:53:22;;;;;;;8.07;3.10;;;24.10;75.20;;;;;;4907437;29;20667;-70
2022/08/02 08:55:51;;;;;;;5.45;2.85;;;24.00;78.10;;;;;;4911698;29;20048;-70
2022/08/02 08:58:17;;;;;;;5.72;2.90;;;24.00;74.00;;;;;;4910790;29;20754;-70
2022/08/02 09:00:43;;;;;;;4.65;2.15;;;24.10;69.30;;;;;;4907624;29;20048;-71
2022/08/02 09:03:09;;;;;;;3.63;2.40;;;24.20;70.40;;;;;;4910402;29;20589;-68
2022/08/02 09:05:37;;;;;;;8.00;2.95;;;24.30;69.70;;;;;;4914306;29;20063;-67
2022/08/02 09:08:03;;;;;;;;;;;24.40;67.40;;;;;;4912255;29;20386;-68
2022/08/02 09:10:33;;;;;;;5.10;2.38;;;24.50;67.10;;;;;;4913071;29;20030;-68
2022/08/02 09:13:30;;;;;;;3.95;2.72;;;24.60;68.10;;;;;;4910630;29;22017;-68
2022/08/02 09:16:00;;;;;;;;;;;24.70;63.80;;;;;;4913027;29;20482;-68
2022/08/02 09:18:34;;;;;;;6.90;2.58;;;24.80;63.70;;;;;;4908879;29;19935;-68
2022/08/02 09:21:02;;;;;;;2.45;2.25;;;24.80;63.50;;;;;;4899665;29;20111;-68
2022/08/02 09:23:43;;;;;;;3.78;2.85;;;25.00;64.80;;;;;;4913885;29;20777;-68
2022/08/02 09:26:12;;;;;;;3.03;2.75;;;25.20;62.30;;;;;;4914650;29;20091;-68
2022/08/02 09:28:40;;;;;;;7.45;3.05;;;25.30;63.80;;;;;;4923272;29;20692;-68
2022/08/02 09:31:11;;;;;;;6.75;3.10;;;25.30;61.00;;;;;;4926557;29;20089;-69
2022/08/02 09:33:38;;;;;;;3.92;2.78;;;25.50;61.60;;;;;;4929284;29;20070;-68
2022/08/02 09:36:05;;;;;;;6.07;2.97;;;25.50;61.40;;;;;;4934739;29;20828;-68
2022/08/02 09:38:32;;;;;;;3.95;2.90;;;25.60;62.20;;;;;;4899589;29;20489;-68
2022/08/02 09:40:59;;;;;;;4.55;3.03;;;25.70;61.20;;;;;;4929718;29;20043;-69
2022/08/02 09:43:42;;;;;;;6.40;3.30;;;25.70;60.70;;;;;;4928614;29;20236;-69
2022/08/02 09:46:12;;;;;;;5.15;2.97;;;25.80;56.60;;;;;;4920556;29;20090;-69
2022/08/02 09:48:55;;;;;;;6.18;3.03;;;25.80;60.00;;;;;;4920900;29;20141;-70
2022/08/02 09:51:34;;;;;;;2.78;2.45;;;25.90;57.40;;;;;;4917963;29;20043;-69
2022/08/02 09:54:03;;;;;;;7.45;2.92;;;26.00;59.30;;;;;;4930598;29;20075;-69
2022/08/02 09:56:46;;;;;;;3.28;2.67;;;26.10;59.30;;;;;;4930806;29;20048;-68
2022/08/02 09:59:13;;;;;;;6.32;3.30;;;26.00;58.90;;;;;;4912657;29;20356;-68
2022/08/02 10:01:40;;;;;;;;;;;26.00;60.00;;;;;;4933729;29;20441;-68
2022/08/02 10:04:10;;;;;;;6.38;3.38;;;25.90;58.50;;;;;;4929806;29;19970;-68
2022/08/02 10:06:41;;;;;;;5.68;4.07;;;25.90;60.80;;;;;;4914448;29;20841;-68
2022/08/02 10:09:11;;;;;;;3.35;3.05;;;26.00;62.10;;;;;;4931671;29;20055;-68
2022/08/02 10:11:36;;;;;;;6.25;3.42;;;26.10;61.80;;;;;;4912746;29;20051;-69
2022/08/02 10:14:04;;;;;;;7.07;4.43;;;26.20;63.00;;;;;;4925252;29;20058;-68
2022/08/02 10:16:33;;;;;;;4.80;3.13;;;26.30;61.60;;;;;;4923938;29;20107;-67
2022/08/02 10:19:03;;;;;;;5.75;3.28;;;26.50;62.00;;;;;;4928745;29;20043;-68
2022/08/02 10:21:51;;;;;;;5.60;4.13;;;26.60;62.70;;;;;;4942485;29;20062;-69
2022/08/02 10:24:23;;;;;;;4.18;3.78;;;26.60;60.70;;;;;;4929106;29;20629;-69
2022/08/02 10:26:49;;;;;;;5.72;3.67;;;26.60;60.90;;;;;;4931156;29;20516;-68
2022/08/02 10:29:18;;;;;;;4.93;4.35;;;26.60;62.30;;;;;;4925604;29;20067;-69
2022/08/02 10:31:53;;;;;;;10.45;4.28;;;26.60;61.80;;;;;;4928398;29;20419;-70
2022/08/02 10:34:23;;;;;;;4.43;4.03;;;26.50;62.30;;;;;;4930821;29;20122;-68
2022/08/02 10:36:50;;;;;;;6.03;4.70;;;26.60;63.90;;;;;;4935189;29;20087;-69
2022/08/02 10:39:16;;;;;;;;;;;26.60;63.90;;;;;;4921280;29;20047;-69
2022/08/02 10:41:48;;;;;;;5.20;4.43;;;26.60;63.70;;;;;;4922628;29;19933;-69
2022/08/02 10:44:25;;;;;;;5.38;4.55;;;26.70;65.90;;;;;;4914832;29;20052;-69
2022/08/02 10:47:16;;;;;;;5.20;4.75;;;26.90;65.90;;;;;;4924446;29;20083;-67
2022/08/02 10:49:58;;;;;;;7.68;5.03;;;27.00;67.00;;;;;;4932620;29;20047;-69
2022/08/02 10:52:27;;;;;;;12.20;5.95;;;27.00;67.30;;;;;;4937545;29;20044;-69
2022/08/02 10:55:08;;;;;;;6.82;4.70;;;27.20;68.60;;;;;;4934755;29;20137;-68
2022/08/02 10:57:35;;;;;;;11.88;5.80;;;27.30;67.80;;;;;;4942979;29;20039;-69
2022/08/02 11:00:24;;;;;;;9.10;5.38;;;27.40;68.30;;;;;;4916988;29;20516;-69
2022/08/02 11:02:51;;;;;;;6.38;5.05;;;27.50;67.20;;;;;;4917154;29;20056;-68
2022/08/02 11:05:33;;;;;;;6.50;5.47;;;27.50;68.50;;;;;;4906271;29;20119;-70
2022/08/02 11:08:20;;;;;;;11.20;7.38;;;27.60;67.40;;;;;;4932479;29;20422;-69
2022/08/02 11:10:46;;;;;;;7.45;4.82;;;27.60;67.00;;;;;;4934082;29;20048;-69
2022/08/02 11:13:18;;;;;;;11.50;5.85;;;27.80;68.90;;;;;;4919382;29;20547;-69
2022/08/02 11:16:01;;;;;;;7.50;5.82;;;27.90;68.60;;;;;;4933030;29;20047;-69
2022/08/02 11:18:45;;;;;;;8.88;6.18;;;28.10;68.80;;;;;;4932306;29;20579;-69
2022/08/02 11:21:32;;;;;;;8.50;5.85;;;28.10;65.40;;;;;;4935449;29;20048;-69
2022/08/02 11:24:26;;;;;;;13.70;6.47;;;28.00;66.10;;;;;;4935255;29;20114;-69
2022/08/02 11:26:52;;;;;;;9.05;5.63;;;28.10;67.50;;;;;;4933728;29;20059;-69
2022/08/02 11:29:19;;;;;;;5.65;5.03;;;28.20;66.80;;;;;;4931105;29;20079;-69
2022/08/02 11:31:46;;;;;;;12.33;6.93;;;28.30;67.40;;;;;;4917153;29;20052;-69
2022/08/02 11:34:12;;;;;;;;;;;28.20;65.20;;;;;;4930478;29;20496;-68
2022/08/02 11:36:46;;;;;;;5.70;5.10;;;28.20;62.90;;;;;;4936116;29;20286;-70
2022/08/02 11:39:14;;;;;;;6.45;5.05;;;28.20;65.60;;;;;;4913476;29;20816;-69
2022/08/02 11:41:39;;;;;;;;;;;28.20;64.70;;;;;;4944829;29;20079;-69
2022/08/02 11:44:05;;;;;;;5.75;4.72;;;28.10;63.10;;;;;;4938033;29;19973;-68
2022/08/02 11:46:32;;;;;;;5.85;5.22;;;28.20;64.20;;;;;;4931505;29;20627;-69
2022/08/02 11:49:14;;;;;;;6.93;5.45;;;28.10;63.50;;;;;;4931911;29;20111;-68
2022/08/02 11:52:03;;;;;;;8.02;4.25;;;28.10;61.60;;;;;;4933814;29;20042;-69
2022/08/02 11:54:40;;;;;;;5.00;4.53;;;28.10;65.00;;;;;;4927109;29;20044;-69
2022/08/02 11:57:19;;;;;;;12.50;5.72;;;28.20;63.50;;;;;;4929907;29;20489;-69
2022/08/02 11:59:49;;;;;;;8.35;4.68;;;28.20;63.80;;;;;;4936848;29;20513;-69
2022/08/02 12:02:16;;;;;;;10.88;4.53;;;28.20;63.90;;;;;;4919660;29;20497;-70
2022/08/02 12:04:42;;;;;;;4.50;4.10;;;28.20;64.10;;;;;;4915215;29;20055;-70
2022/08/02 12:07:08;;;;;;;4.28;3.97;;;28.20;63.00;;;;;;4932068;29;20044;-69
2022/08/02 12:09:35;;;;;;;6.70;5.00;;;28.40;63.90;;;;;;4931705;29;20097;-70
2022/08/02 12:12:02;;;;;;;11.68;5.55;;;28.50;63.30;;;;;;4936275;29;20138;-69
2022/08/02 12:14:30;;;;;;;5.63;4.47;;;28.50;63.10;;;;;;4918024;29;20052;-68
2022/08/02 12:19:41;;;;;;;8.93;5.00;;;28.30;63.30;;;;;;4929377;29;20983;-70
2022/08/02 12:22:08;;;;;;;;;;;28.20;63.10;;;;;;4933154;29;20047;-69
2022/08/02 12:24:35;;;;;;;8.95;4.82;;;28.10;62.70;;;;;;4933834;29;19978;-70
2022/08/02 12:27:01;;;;;;;8.07;4.32;;;28.00;64.40;;;;;;4918803;29;20461;-69
2022/08/02 12:29:38;;;;;;;3.85;3.55;;;28.00;64.60;;;;;;4932227;29;20082;-68
2022/08/02 12:32:05;;;;;;;5.22;3.55;;;28.00;60.80;;;;;;4918299;29;20043;-73
2022/08/02 12:34:32;;;;;;;7.78;3.53;;;28.10;61.50;;;;;;4932244;29;20594;-80
2022/08/02 12:36:59;;;;;;;12.75;3.55;;;28.10;60.70;;;;;;4912548;29;20052;-80
2022/08/02 12:39:54;;;;;;;4.70;3.60;;;28.00;60.40;;;;;;4915147;29;20497;-79
2022/08/02 12:42:20;;;;;;;3.65;3.35;;;28.10;57.60;;;;;;4939389;29;20234;-79
2022/08/02 12:44:54;;;;;;;3.78;3.47;;;28.20;59.20;;;;;;4919900;29;20131;-78
2022/08/02 12:47:20;;;;;;;4.13;3.10;;;28.10;58.80;;;;;;4906233;29;20055;-79
2022/08/02 12:50:07;;;;;;;4.40;3.35;;;28.20;59.30;;;;;;4931098;29;20048;-80
2022/08/02 12:52:32;;;;;;;5.45;3.53;;;28.10;59.50;;;;;;4915175;29;20563;-79
2022/08/02 12:54:58;;;;;;;4.57;4.18;;;28.10;60.80;;;;;;4915335;29;20055;-80